Pagina principală
METAR-TAF:

METAR-TAF

Aeroporturi :

Salinas, Ecuador

Latitudine: 02-12-18S, longitudine: 080-59-20W, elevație: 5 m

Observații meteo curente

Raportul a fost făcut în urmă cu 9 ore și 49 de minute, la 23:00 UTC
Vânt 5 kt de la Sud-vest
Temperatură 24°C
Umiditate 83%
Presiune 1012 hPa
Vizibilitate de 10 km sau mai mult
Nori puțini la o înălțime de 900 picior

METAR: SESA 132300Z 22005KT 9999 FEW009 24/21 Q1012 RMK A2989

Ora: 03:49 (08:49 UTC)


TAF: lipsă

Observații și prognoze meteo pentru peste 4.000 de aeroporturi (rapoarte METAR și TAF).

Stațiile disponibile sunt reprezentate pe hartă prin puncte galbene și roșii.

Țineți indicatorul mouse-ului pe punctul dorit pentru a vedea denumirea stației.

Apoi, faceți clic pentru a vedea observațiile și prognozele meteorologice.

Pentru a schimba harta: Pentru mărire, faceți clic pe butoanele verzi cu cruce neagră; pentru micșorare, pe butonul verde cu o liniuță; pentru hărți învecinate, pe săgețile verzi.


METAR-TAF: